Time,TemperatureF,DewpointF,PressureIn,WindDirection,WindDirectionDegrees,WindSpeedMPH,WindSpeedGustMPH,Humidity,HourlyPrecipIn,Conditions,Clouds,dailyrainin,SoftwareType,DateUTC
2013-11-20 00:03:00,31.8,24.0,29.76,NW,309,4.0,-999.0,74,-99.99,,,0.00,weatherlink.com 1.10,2013-11-20 07:03:00,
2013-11-20 00:18:00,30.7,23.0,29.76,NW,309,3.0,-999.0,74,-99.99,,,0.00,weatherlink.com 1.10,2013-11-20 07:18:00,
2013-11-20 00:33:00,31.6,24.0,29.75,NW,309,5.0,-999.0,74,-99.99,,,0.00,weatherlink.com 1.10,2013-11-20 07:33:00,
2013-11-20 00:48:00,31.0,23.0,29.75,NW,309,2.0,-999.0,73,-99.99,,,0.00,weatherlink.com 1.10,2013-11-20 07:48:00,
2013-11-20 01:03:00,30.3,23.0,29.76,NW,309,0.0,-999.0,75,-99.99,,,0.00,weatherlink.com 1.10,2013-11-20 08:03:00,
2013-11-20 01:18:00,30.0,23.0,29.75,NW,309,3.0,-999.0,76,-99.99,,,0.00,weatherlink.com 1.10,2013-11-20 08:18:00,
2013-11-20 01:33:00,29.7,23.0,29.75,NW,309,3.0,-999.0,77,-99.99,,,0.00,weatherlink.com 1.10,2013-11-20 08:33:00,
2013-11-20 01:48:00,29.7,23.0,29.76,NW,309,3.0,-999.0,77,-99.99,,,0.00,weatherlink.com 1.10,2013-11-20 08:48:00,
2013-11-20 02:03:00,29.0,23.0,29.77,NW,309,3.0,-999.0,78,-99.99,,,0.00,weatherlink.com 1.10,2013-11-20 09:03:00,
2013-11-20 02:18:00,29.1,23.0,29.77,NW,309,3.0,-999.0,78,-99.99,,,0.00,weatherlink.com 1.10,2013-11-20 09:18:00,
2013-11-20 02:33:00,28.8,23.0,29.78,NW,309,3.0,-999.0,78,-99.99,,,0.00,weatherlink.com 1.10,2013-11-20 09:33:00,
2013-11-20 02:48:00,28.2,22.0,29.78,NW,309,0.0,-999.0,78,-99.99,,,0.00,weatherlink.com 1.10,2013-11-20 09:48:00,
2013-11-20 03:03:00,28.7,23.0,29.78,NW,309,1.0,-999.0,80,-99.99,,,0.00,weatherlink.com 1.10,2013-11-20 10:03:00,
2013-11-20 03:18:00,28.5,23.0,29.80,NW,309,3.0,-999.0,80,-99.99,,,0.00,weatherlink.com 1.10,2013-11-20 10:18:00,
2013-11-20 03:33:00,27.8,22.0,29.79,NW,309,2.0,-999.0,80,-99.99,,,0.00,weatherlink.com 1.10,2013-11-20 10:33:00,
2013-11-20 03:48:00,27.5,22.0,29.78,NW,309,1.0,-999.0,80,-99.99,,,0.00,weatherlink.com 1.10,2013-11-20 10:48:00,
2013-11-20 04:04:00,27.0,22.0,29.79,NW,309,0.0,-999.0,81,-99.99,,,0.00,weatherlink.com 1.10,2013-11-20 11:04:00,
2013-11-20 04:19:00,27.2,22.0,29.80,NW,309,2.0,-999.0,82,-99.99,,,0.00,weatherlink.com 1.10,2013-11-20 11:19:00,
2013-11-20 04:33:00,28.1,23.0,29.79,NW,309,4.0,-999.0,82,-99.99,,,0.00,weatherlink.com 1.10,2013-11-20 11:33:00,
2013-11-20 04:50:00,27.3,22.0,29.80,NW,309,0.0,-999.0,80,-99.99,,,0.00,weatherlink.com 1.10,2013-11-20 11:50:00,
2013-11-20 05:03:00,26.3,21.0,29.80,NW,309,0.0,-999.0,80,-99.99,,,0.00,weatherlink.com 1.10,2013-11-20 12:03:00,
2013-11-20 05:19:00,26.1,21.0,29.83,NW,309,0.0,-999.0,82,-99.99,,,0.00,weatherlink.com 1.10,2013-11-20 12:19:00,
2013-11-20 05:34:00,25.3,21.0,29.85,NW,309,0.0,-999.0,82,-99.99,,,0.00,weatherlink.com 1.10,2013-11-20 12:34:00,
2013-11-20 05:49:00,26.4,22.0,29.84,NW,309,3.0,-999.0,84,-99.99,,,0.00,weatherlink.com 1.10,2013-11-20 12:49:00,
2013-11-20 06:04:00,25.8,21.0,29.84,NW,309,0.0,-999.0,82,-99.99,,,0.00,weatherlink.com 1.10,2013-11-20 13:04:00,
2013-11-20 06:20:00,26.6,22.0,29.85,NW,309,0.0,-999.0,84,-99.99,,,0.00,weatherlink.com 1.10,2013-11-20 13:20:00,
2013-11-20 06:35:00,26.6,22.0,29.85,NW,309,0.0,-999.0,84,-99.99,,,0.00,weatherlink.com 1.10,2013-11-20 13:35:00,
2013-11-20 06:51:00,27.2,23.0,29.86,NW,309,0.0,-999.0,84,-99.99,,,0.00,weatherlink.com 1.10,2013-11-20 13:51:00,
2013-11-20 07:05:00,26.1,22.0,29.87,NW,309,0.0,-999.0,84,-99.99,,,0.00,weatherlink.com 1.10,2013-11-20 14:05:00,
2013-11-20 07:20:00,27.6,23.0,29.88,NW,310,2.0,-999.0,84,-99.99,,,0.00,weatherlink.com 1.10,2013-11-20 14:20:00,
2013-11-20 07:36:00,28.4,24.0,29.87,NW,310,0.0,-999.0,84,-99.99,,,0.00,weatherlink.com 1.10,2013-11-20 14:36:00,
2013-11-20 07:51:00,29.1,25.0,29.87,NNW,335,3.0,-999.0,83,-99.99,,,0.00,weatherlink.com 1.10,2013-11-20 14:51:00,
2013-11-20 08:06:00,30.3,26.0,29.86,NNW,338,2.0,-999.0,83,-99.99,,,0.00,weatherlink.com 1.10,2013-11-20 15:06:00,
2013-11-20 08:20:00,31.9,27.0,29.88,NNW,338,1.0,-999.0,81,-99.99,,,0.00,weatherlink.com 1.10,2013-11-20 15:20:00,
2013-11-20 08:35:00,33.8,28.0,29.87,NNW,338,3.0,-999.0,79,-99.99,,,0.00,weatherlink.com 1.10,2013-11-20 15:35:00,
2013-11-20 08:52:00,36.0,29.0,29.86,NNW,338,1.0,-999.0,76,-99.99,,,0.00,weatherlink.com 1.10,2013-11-20 15:52:00,
2013-11-20 09:06:00,38.8,30.0,29.84,NNW,338,3.0,-999.0,72,-99.99,,,0.00,weatherlink.com 1.10,2013-11-20 16:06:00,
2013-11-20 09:22:00,41.3,31.0,29.85,NNW,338,0.0,-999.0,66,-99.99,,,0.00,weatherlink.com 1.10,2013-11-20 16:22:00,
2013-11-20 09:37:00,41.9,30.0,29.83,NNW,338,1.0,-999.0,64,-99.99,,,0.00,weatherlink.com 1.10,2013-11-20 16:37:00,
2013-11-20 09:52:00,44.3,31.0,29.82,NNW,338,2.0,-999.0,59,-99.99,,,0.00,weatherlink.com 1.10,2013-11-20 16:52:00,
2013-11-20 10:07:00,47.0,30.0,29.81,NNW,338,0.0,-999.0,53,-99.99,,,0.00,weatherlink.com 1.10,2013-11-20 17:07:00,
2013-11-20 10:22:00,49.4,31.0,29.81,NNW,338,0.0,-999.0,49,-99.99,,,0.00,weatherlink.com 1.10,2013-11-20 17:22:00,
2013-11-20 10:37:00,50.5,30.0,29.78,ESE,113,3.0,-999.0,45,-99.99,,,0.00,weatherlink.com 1.10,2013-11-20 17:37:00,
2013-11-20 10:52:00,51.6,30.0,29.77,South,178,2.0,-999.0,43,-99.99,,,0.00,weatherlink.com 1.10,2013-11-20 17:52:00,
2013-11-20 11:07:00,51.4,29.0,29.76,SSE,151,3.0,-999.0,43,-99.99,,,0.00,weatherlink.com 1.10,2013-11-20 18:07:00,
2013-11-20 11:22:00,52.5,29.0,29.75,ESE,117,0.0,-999.0,41,-99.99,,,0.00,weatherlink.com 1.10,2013-11-20 18:22:00,
2013-11-20 11:38:00,53.2,29.0,29.74,South,179,0.0,-999.0,40,-99.99,,,0.00,weatherlink.com 1.10,2013-11-20 18:38:00,
2013-11-20 11:53:00,52.6,30.0,29.73,East,100,1.0,-999.0,42,-99.99,,,0.00,weatherlink.com 1.10,2013-11-20 18:53:00,
2013-11-20 12:08:00,52.8,30.0,29.73,East,98,2.0,-999.0,42,-99.99,,,0.00,weatherlink.com 1.10,2013-11-20 19:08:00,
2013-11-20 12:24:00,52.6,30.0,29.73,ESE,105,0.0,-999.0,43,-99.99,,,0.00,weatherlink.com 1.10,2013-11-20 19:24:00,
2013-11-20 12:38:00,53.3,30.0,29.73,SSW,205,0.0,-999.0,41,-99.99,,,0.00,weatherlink.com 1.10,2013-11-20 19:38:00,
2013-11-20 12:53:00,53.5,31.0,29.72,SSW,207,0.0,-999.0,42,-99.99,,,0.00,weatherlink.com 1.10,2013-11-20 19:53:00,
2013-11-20 13:08:00,53.5,31.0,29.71,East,98,0.0,-999.0,42,-99.99,,,0.00,weatherlink.com 1.10,2013-11-20 20:08:00,
2013-11-20 13:23:00,52.9,31.0,29.71,SSE,148,0.0,-999.0,43,-99.99,,,0.00,weatherlink.com 1.10,2013-11-20 20:23:00,
2013-11-20 13:39:00,52.6,30.0,29.70,South,188,0.0,-999.0,43,-99.99,,,0.00,weatherlink.com 1.10,2013-11-20 20:39:00,
2013-11-20 13:55:00,52.5,31.0,29.71,SW,217,2.0,-999.0,44,-99.99,,,0.00,weatherlink.com 1.10,2013-11-20 20:55:00,
2013-11-20 14:40:00,52.2,32.0,29.70,SSW,205,0.0,-999.0,46,-99.99,,,0.00,weatherlink.com 1.10,2013-11-20 21:40:00,
2013-11-20 14:55:00,52.0,32.0,29.70,SSW,205,0.0,-999.0,46,-99.99,,,0.00,weatherlink.com 1.10,2013-11-20 21:55:00,
2013-11-20 15:10:00,51.9,32.0,29.70,SSW,205,0.0,-999.0,47,-99.99,,,0.00,weatherlink.com 1.10,2013-11-20 22:10:00,
2013-11-20 15:24:00,51.7,32.0,29.71,SW,221,4.0,-999.0,48,-99.99,,,0.00,weatherlink.com 1.10,2013-11-20 22:24:00,
2013-11-20 15:40:00,51.0,30.0,29.71,NW,307,0.0,-999.0,45,-99.99,,,0.00,weatherlink.com 1.10,2013-11-20 22:40:00,
2013-11-20 15:55:00,50.5,32.0,29.73,West,270,6.0,-999.0,50,-99.99,,,0.00,weatherlink.com 1.10,2013-11-20 22:55:00,
2013-11-20 16:10:00,49.1,34.0,29.74,West,276,9.0,-999.0,57,-99.99,,,0.00,weatherlink.com 1.10,2013-11-20 23:10:00,
2013-11-20 16:25:00,47.1,36.0,29.76,WSW,251,4.0,-999.0,66,-99.99,,,0.00,weatherlink.com 1.10,2013-11-20 23:25:00,
2013-11-20 16:40:00,46.2,37.0,29.76,WSW,241,5.0,-999.0,70,-99.99,,,0.00,weatherlink.com 1.10,2013-11-20 23:40:00,
2013-11-20 16:56:00,45.7,37.0,29.78,West,265,0.0,-999.0,72,-99.99,,,0.00,weatherlink.com 1.10,2013-11-20 23:56:00,
2013-11-20 17:10:00,45.4,38.0,29.79,West,265,1.0,-999.0,76,-99.99,,,0.00,weatherlink.com 1.10,2013-11-21 00:10:00,
2013-11-20 17:25:00,44.6,39.0,29.80,West,265,0.0,-999.0,80,-99.99,,,0.00,weatherlink.com 1.10,2013-11-21 00:25:00,
2013-11-20 17:41:00,43.8,39.0,29.81,West,265,1.0,-999.0,82,-99.99,,,0.01,weatherlink.com 1.10,2013-11-21 00:41:00,
2013-11-20 17:57:00,43.2,38.0,29.82,West,265,3.0,-999.0,83,-99.99,,,0.01,weatherlink.com 1.10,2013-11-21 00:57:00,
2013-11-20 18:10:00,42.8,38.0,29.82,West,265,0.0,-999.0,84,-99.99,,,0.01,weatherlink.com 1.10,2013-11-21 01:10:00,
2013-11-20 18:26:00,42.6,38.0,29.83,West,265,0.0,-999.0,85,-99.99,,,0.01,weatherlink.com 1.10,2013-11-21 01:26:00,
2013-11-20 18:41:00,42.5,39.0,29.84,West,265,0.0,-999.0,86,-99.99,,,0.01,weatherlink.com 1.10,2013-11-21 01:41:00,
2013-11-20 18:56:00,42.3,39.0,29.84,West,265,0.0,-999.0,87,-99.99,,,0.02,weatherlink.com 1.10,2013-11-21 01:56:00,
2013-11-20 19:11:00,42.2,39.0,29.84,West,265,0.0,-999.0,88,-99.99,,,0.02,weatherlink.com 1.10,2013-11-21 02:11:00,
2013-11-20 19:26:00,42.2,39.0,29.82,West,265,0.0,-999.0,88,-99.99,,,0.03,weatherlink.com 1.10,2013-11-21 02:26:00,
2013-11-20 19:41:00,41.9,39.0,29.82,West,265,0.0,-999.0,89,-99.99,,,0.03,weatherlink.com 1.10,2013-11-21 02:41:00,
2013-11-20 19:56:00,41.8,39.0,29.82,West,265,0.0,-999.0,89,-99.99,,,0.04,weatherlink.com 1.10,2013-11-21 02:56:00,
2013-11-20 20:11:00,41.6,39.0,29.83,West,265,0.0,-999.0,90,-99.99,,,0.04,weatherlink.com 1.10,2013-11-21 03:11:00,
2013-11-20 20:26:00,41.5,39.0,29.78,West,265,0.0,-999.0,90,-99.99,,,0.04,weatherlink.com 1.10,2013-11-21 03:26:00,
2013-11-20 20:41:00,41.3,39.0,29.79,West,265,0.0,-999.0,90,-99.99,,,0.04,weatherlink.com 1.10,2013-11-21 03:41:00,
2013-11-20 20:56:00,41.3,39.0,29.80,West,265,0.0,-999.0,91,-99.99,,,0.04,weatherlink.com 1.10,2013-11-21 03:56:00,
2013-11-20 21:11:00,41.2,39.0,29.80,West,265,0.0,-999.0,91,-99.99,,,0.04,weatherlink.com 1.10,2013-11-21 04:11:00,
2013-11-20 21:26:00,41.3,39.0,29.75,West,265,0.0,-999.0,91,-99.99,,,0.04,weatherlink.com 1.10,2013-11-21 04:26:00,
2013-11-20 21:41:00,41.3,39.0,29.75,West,265,0.0,-999.0,92,-99.99,,,0.04,weatherlink.com 1.10,2013-11-21 04:41:00,
2013-11-20 21:56:00,41.3,39.0,29.75,West,265,0.0,-999.0,92,-99.99,,,0.04,weatherlink.com 1.10,2013-11-21 04:56:00,
2013-11-20 22:11:00,41.3,39.0,29.75,West,265,0.0,-999.0,92,-99.99,,,0.04,weatherlink.com 1.10,2013-11-21 05:11:00,
2013-11-20 22:26:00,41.2,39.0,29.72,West,265,0.0,-999.0,92,-99.99,,,0.04,weatherlink.com 1.10,2013-11-21 05:26:00,
2013-11-20 22:41:00,40.9,39.0,29.72,West,265,0.0,-999.0,92,-99.99,,,0.04,weatherlink.com 1.10,2013-11-21 05:41:00,
2013-11-20 22:56:00,40.9,39.0,29.71,West,265,0.0,-999.0,92,-99.99,,,0.04,weatherlink.com 1.10,2013-11-21 05:56:00,
2013-11-20 23:11:00,40.9,39.0,29.72,West,265,0.0,-999.0,92,-99.99,,,0.04,weatherlink.com 1.10,2013-11-21 06:11:00,
2013-11-20 23:26:00,40.9,39.0,29.70,West,265,0.0,-999.0,92,-99.99,,,0.04,weatherlink.com 1.10,2013-11-21 06:26:00,
2013-11-20 23:42:00,40.8,39.0,29.70,West,265,0.0,-999.0,92,-99.99,,,0.04,weatherlink.com 1.10,2013-11-21 06:42:00,
2013-11-20 23:57:00,40.8,39.0,29.70,West,265,0.0,-999.0,93,-99.99,,,0.04,weatherlink.com 1.10,2013-11-21 06:57:00,